createdAt,value
2018-11-13T00:00:25.841Z,96224.81
2018-11-13T00:02:55.774Z,96229.88
2018-11-13T00:05:25.482Z,96223.09
2018-11-13T00:07:54.665Z,96232.02
2018-11-13T00:10:23.958Z,96238.42
2018-11-13T00:12:53.175Z,96239.96
2018-11-13T00:15:22.697Z,96243.09
2018-11-13T00:17:51.907Z,96250.27
2018-11-13T00:20:21.170Z,96251.05
2018-11-13T00:22:50.685Z,96249.30
2018-11-13T00:25:20.503Z,96257.86
2018-11-13T00:27:49.690Z,96254.36
2018-11-13T00:30:20.730Z,96251.06
2018-11-13T00:32:50.335Z,96239.59
2018-11-13T00:35:20.419Z,96250.28
2018-11-13T00:37:50.035Z,96242.13
2018-11-13T00:40:19.406Z,96247.76
2018-11-13T00:42:49.120Z,96246.98
2018-11-13T00:45:18.716Z,96241.53
2018-11-13T00:47:47.723Z,96243.08
2018-11-13T00:50:20.197Z,96240.54
2018-11-13T00:52:49.606Z,96239.58
2018-11-13T00:55:19.141Z,96241.52
2018-11-13T00:57:49.036Z,96226.00
2018-11-13T01:00:19.756Z,96232.00
2018-11-13T01:02:49.301Z,96236.67
2018-11-13T01:05:19.894Z,96236.48
2018-11-13T01:07:50.186Z,96229.30
2018-11-13T01:10:20.087Z,96221.93
2018-11-13T01:12:49.660Z,96218.45
2018-11-13T01:15:20.266Z,96222.36
2018-11-13T01:17:49.786Z,96219.83
2018-11-13T01:20:19.609Z,96227.41
2018-11-13T01:22:49.050Z,96226.83
2018-11-13T01:25:18.430Z,96227.59
2018-11-13T01:27:47.777Z,96232.64
2018-11-13T01:30:17.627Z,96230.91
2018-11-13T01:32:47.065Z,96239.80
2018-11-13T01:35:17.433Z,96240.58
2018-11-13T01:37:47.016Z,96239.62
2018-11-13T01:40:17.966Z,96236.52
2018-11-13T01:42:47.187Z,96239.42
2018-11-13T01:45:17.335Z,96240.20
2018-11-13T01:47:46.553Z,96246.59
2018-11-13T01:50:16.069Z,96244.08
2018-11-13T01:52:45.658Z,96248.35
2018-11-13T01:55:15.785Z,96246.21
2018-11-13T01:57:45.046Z,96246.78
2018-11-13T02:00:23.836Z,96253.58
2018-11-13T02:02:54.346Z,96243.30
2018-11-13T02:05:25.011Z,96249.71
2018-11-13T02:07:54.765Z,96240.95
2018-11-13T02:10:23.986Z,96239.42
2018-11-13T02:12:53.473Z,96234.38
2018-11-13T02:15:22.981Z,96231.28
2018-11-13T02:17:52.315Z,96228.37
2018-11-13T02:20:22.610Z,96227.01
2018-11-13T02:22:51.971Z,96231.66
2018-11-13T02:25:21.690Z,96233.02
2018-11-13T02:27:50.973Z,96233.02
2018-11-13T02:30:23.300Z,96230.67
2018-11-13T02:32:52.655Z,96229.51
2018-11-13T02:35:21.992Z,96233.58
2018-11-13T02:37:51.333Z,96235.09
2018-11-13T02:40:20.729Z,96239.95
2018-11-13T02:42:50.037Z,96244.80
2018-11-13T02:45:20.135Z,96244.23
2018-11-13T02:47:49.845Z,96251.59
2018-11-13T02:50:20.212Z,96250.98
2018-11-13T02:52:49.388Z,96248.45
2018-11-13T02:55:19.020Z,96247.88
2018-11-13T02:57:48.111Z,96253.88
2018-11-13T03:00:21.597Z,96247.70
2018-11-13T03:02:51.274Z,96252.13
2018-11-13T03:05:21.452Z,96249.78
2018-11-13T03:07:50.672Z,96249.21
2018-11-13T03:10:20.525Z,96248.27
2018-11-13T03:12:50.062Z,96247.86
2018-11-13T03:15:20.406Z,96253.30
2018-11-13T03:17:49.778Z,96250.22
2018-11-13T03:20:20.006Z,96253.30
2018-11-13T03:22:49.803Z,96258.70
2018-11-13T03:25:20.362Z,96260.61
2018-11-13T03:27:49.602Z,96259.02
2018-11-13T03:30:26.344Z,96263.44
2018-11-13T03:32:55.843Z,96260.56
2018-11-13T03:35:25.170Z,96262.84
2018-11-13T03:37:54.437Z,96260.16
2018-11-13T03:40:23.528Z,96259.00
2018-11-13T03:42:53.141Z,96260.54
2018-11-13T03:45:22.455Z,96266.91
2018-11-13T03:47:51.714Z,96271.38
2018-11-13T03:50:22.052Z,96270.19
2018-11-13T03:52:51.378Z,96268.80
2018-11-13T03:55:21.170Z,96266.67
2018-11-13T03:57:50.990Z,96269.97
2018-11-13T04:00:22.713Z,96263.95
2018-11-13T04:02:51.953Z,96261.45
2018-11-13T04:05:21.855Z,96265.95
2018-11-13T04:07:54.022Z,96262.25
2018-11-13T04:10:23.891Z,96275.80
2018-11-13T04:12:53.297Z,96273.11
2018-11-13T04:15:23.607Z,96267.49
2018-11-13T04:17:52.983Z,96272.13
2018-11-13T04:20:23.025Z,96273.34
2018-11-13T04:22:52.356Z,96277.62
2018-11-13T04:25:21.815Z,96278.78
2018-11-13T04:27:51.224Z,96288.45
2018-11-13T04:30:20.635Z,96287.84
2018-11-13T04:32:49.933Z,96291.70
2018-11-13T04:35:19.514Z,96294.19
2018-11-13T04:37:48.627Z,96293.41
2018-11-13T04:40:20.953Z,96299.44
2018-11-13T04:42:52.436Z,96290.51
2018-11-13T04:45:23.694Z,96289.72
2018-11-13T04:47:53.397Z,96285.28
2018-11-13T04:50:23.358Z,96287.22
2018-11-13T04:52:52.407Z,96288.95
2018-11-13T04:55:21.602Z,96284.50
2018-11-13T04:57:51.218Z,96287.20
2018-11-13T05:00:21.958Z,96282.78
2018-11-13T05:02:51.340Z,96286.12
2018-11-13T05:05:21.542Z,96292.89
2018-11-13T05:07:51.992Z,96293.88
2018-11-13T05:10:21.096Z,96298.74
2018-11-13T05:12:50.744Z,96299.30
2018-11-13T05:15:20.139Z,96298.30
2018-11-13T05:17:49.374Z,96303.36
2018-11-13T05:20:18.897Z,96297.95
2018-11-13T05:22:47.927Z,96315.16
2018-11-13T05:25:18.855Z,96314.94
2018-11-13T05:27:48.079Z,96315.16
2018-11-13T05:30:20.865Z,96304.55
2018-11-13T05:32:50.141Z,96315.64
2018-11-13T05:35:20.421Z,96307.96
2018-11-13T05:37:49.794Z,96314.59
2018-11-13T05:40:23.057Z,96315.61
2018-11-13T05:42:52.504Z,96320.32
2018-11-13T05:45:23.943Z,96324.42
2018-11-13T05:47:53.552Z,96329.64
2018-11-13T05:50:22.822Z,96321.05
2018-11-13T05:52:53.463Z,96329.86
2018-11-13T05:55:22.791Z,96335.80
2018-11-13T05:57:52.186Z,96335.09
2018-11-13T06:00:26.266Z,96338.09
2018-11-13T06:02:55.630Z,96329.97
2018-11-13T06:05:24.842Z,96335.41
2018-11-13T06:07:54.182Z,96341.61
2018-11-13T06:10:23.394Z,96345.60
2018-11-13T06:12:52.887Z,96343.56
2018-11-13T06:15:22.115Z,96342.63
2018-11-13T06:17:51.528Z,96341.58
2018-11-13T06:20:20.741Z,96352.34
2018-11-13T06:22:50.321Z,96345.71
2018-11-13T06:25:19.642Z,96350.41
2018-11-13T06:27:49.695Z,96343.91
2018-11-13T06:30:21.429Z,96342.02
2018-11-13T06:32:50.886Z,96346.84
2018-11-13T06:35:20.292Z,96358.03
2018-11-13T06:37:49.490Z,96355.81
2018-11-13T06:40:18.715Z,96357.25
2018-11-13T06:42:48.116Z,96356.23
2018-11-13T06:45:18.886Z,96352.82
2018-11-13T06:47:48.593Z,96368.58
2018-11-13T06:50:17.973Z,96360.11
2018-11-13T06:52:48.043Z,96363.35
2018-11-13T06:55:23.679Z,96358.33
2018-11-13T06:57:52.950Z,96358.53
2018-11-13T07:00:22.445Z,96362.72
2018-11-13T07:02:51.848Z,96354.91
2018-11-13T07:05:21.047Z,96358.45
2018-11-13T07:07:50.416Z,96365.78
2018-11-13T07:10:20.831Z,96357.66
2018-11-13T07:12:50.843Z,96362.84
2018-11-13T07:15:21.408Z,96366.43
2018-11-13T07:17:52.064Z,96371.44
2018-11-13T07:20:22.496Z,96365.61
2018-11-13T07:22:51.862Z,96363.80
2018-11-13T07:25:21.305Z,96361.90
2018-11-13T07:27:50.614Z,96365.84
2018-11-13T07:30:20.958Z,96363.96
2018-11-13T07:32:50.134Z,96358.61
2018-11-13T07:35:20.191Z,96369.12
2018-11-13T07:37:53.853Z,96363.45
2018-11-13T07:40:23.259Z,96367.73
2018-11-13T07:42:52.960Z,96368.46
2018-11-13T07:45:22.144Z,96367.31
2018-11-13T07:47:51.891Z,96361.56
2018-11-13T07:50:21.071Z,96358.68
2018-11-13T07:52:50.381Z,96360.02
2018-11-13T07:55:20.003Z,96357.89
2018-11-13T07:57:49.363Z,96362.67
2018-11-13T08:00:23.886Z,96363.92
2018-11-13T08:02:54.242Z,96363.47
2018-11-13T08:05:23.568Z,96360.80
2018-11-13T08:07:52.793Z,96352.69
2018-11-13T08:10:21.952Z,96356.59
2018-11-13T08:12:51.508Z,96359.84
2018-11-13T08:15:20.687Z,96360.73
2018-11-13T08:17:49.960Z,96355.05
2018-11-13T08:20:19.306Z,96356.23
2018-11-13T08:22:55.153Z,96355.58
2018-11-13T08:25:24.793Z,96357.34
2018-11-13T08:27:53.951Z,96351.76
2018-11-13T08:30:23.192Z,96346.79
2018-11-13T08:32:52.349Z,96354.92
2018-11-13T08:35:21.589Z,96353.60
2018-11-13T08:37:51.062Z,96353.52
2018-11-13T08:40:20.386Z,96357.80
2018-11-13T08:42:49.518Z,96353.15
2018-11-13T08:45:18.695Z,96350.89
2018-11-13T08:47:48.073Z,96349.59
2018-11-13T08:50:17.785Z,96337.53
2018-11-13T08:52:47.586Z,96340.91
2018-11-13T08:55:17.047Z,96346.75
2018-11-13T08:57:46.316Z,96340.27
2018-11-13T09:00:17.002Z,96344.98
2018-11-13T09:02:46.768Z,96344.98
2018-11-13T09:05:16.430Z,96343.54
2018-11-13T09:07:45.932Z,96339.09
2018-11-13T09:10:16.650Z,96331.02
2018-11-13T09:12:46.105Z,96336.10
2018-11-13T09:15:16.815Z,96326.28
2018-11-13T09:17:46.106Z,96331.87
2018-11-13T09:20:16.542Z,96328.41
2018-11-13T09:22:45.853Z,96333.77
2018-11-13T09:25:17.215Z,96321.24
2018-11-13T09:27:46.741Z,96316.27
2018-11-13T09:30:17.393Z,96304.86
2018-11-13T09:32:46.964Z,96303.41
2018-11-13T09:35:16.979Z,96291.66
2018-11-13T09:37:46.056Z,96294.72
2018-11-13T09:40:17.760Z,96301.89
2018-11-13T09:42:47.942Z,96293.47
2018-11-13T09:45:17.655Z,96289.27
2018-11-13T09:47:47.023Z,96291.97
2018-11-13T09:50:17.506Z,96292.89
2018-11-13T09:52:48.214Z,96290.88
2018-11-13T09:55:18.499Z,96267.55
2018-11-13T09:57:48.068Z,96292.42
2018-11-13T10:00:19.404Z,96276.05
2018-11-13T10:02:51.111Z,96260.68
2018-11-13T10:05:21.153Z,96278.34
2018-11-13T10:07:50.913Z,96275.27
2018-11-13T10:10:20.298Z,96255.36
2018-11-13T10:12:49.677Z,96261.95
2018-11-13T10:15:21.355Z,96260.61
2018-11-13T10:17:51.291Z,96255.59
2018-11-13T10:20:20.523Z,96248.73
2018-11-13T10:22:51.269Z,96266.09
2018-11-13T10:25:20.475Z,96250.39
2018-11-13T10:27:49.738Z,96249.12
2018-11-13T10:30:20.475Z,96243.20
2018-11-13T10:32:50.164Z,96240.58
2018-11-13T10:35:20.773Z,96236.94
2018-11-13T10:37:50.070Z,96244.44
2018-11-13T10:40:20.506Z,96236.59
2018-11-13T10:42:50.174Z,96227.05
2018-11-13T10:45:28.142Z,96222.43
2018-11-13T10:47:57.629Z,96228.74
2018-11-13T10:50:27.468Z,96223.73
2018-11-13T10:52:56.910Z,96215.28
2018-11-13T10:55:26.110Z,96220.74
2018-11-13T10:57:55.237Z,96209.61
2018-11-13T11:00:28.546Z,96217.02
2018-11-13T11:03:02.993Z,96219.20
2018-11-13T11:05:32.518Z,96203.70
2018-11-13T11:08:01.626Z,96208.62
2018-11-13T11:10:30.749Z,96207.15
2018-11-13T11:13:00.190Z,96203.16
2018-11-13T11:15:29.562Z,96193.67
2018-11-13T11:17:59.005Z,96185.32
2018-11-13T11:20:28.519Z,96182.73
2018-11-13T11:22:58.614Z,96189.77
2018-11-13T11:25:27.954Z,96178.50
2018-11-13T11:27:57.220Z,96180.64
2018-11-13T11:30:26.694Z,96176.73
2018-11-13T11:32:56.019Z,96166.19
2018-11-13T11:35:25.278Z,96173.33
2018-11-13T11:37:54.594Z,96160.42
2018-11-13T11:40:23.819Z,96163.66
2018-11-13T11:42:53.661Z,96155.95
2018-11-13T11:45:22.944Z,96152.86
2018-11-13T11:47:52.119Z,96156.61
2018-11-13T11:50:21.481Z,96149.97
2018-11-13T11:52:50.844Z,96152.77
2018-11-13T11:55:20.584Z,96143.15
2018-11-13T11:57:49.707Z,96143.03
2018-11-13T12:00:20.595Z,96147.04
2018-11-13T12:02:49.988Z,96143.06
2018-11-13T12:05:19.259Z,96131.42
2018-11-13T12:07:48.850Z,96138.39
2018-11-13T12:10:18.195Z,96133.48
2018-11-13T12:12:47.461Z,96124.77
2018-11-13T12:15:16.685Z,96124.72
2018-11-13T12:17:46.235Z,96118.20
2018-11-13T12:20:16.553Z,96133.84
2018-11-13T12:22:46.001Z,96129.06
2018-11-13T12:25:20.162Z,96121.47
2018-11-13T12:27:47.957Z,96117.70
2018-11-13T12:30:20.094Z,96122.89
2018-11-13T12:32:50.019Z,96122.84
2018-11-13T12:35:20.198Z,96113.81
2018-11-13T12:37:49.583Z,96115.86
2018-11-13T12:40:20.990Z,96112.66
2018-11-13T12:42:50.921Z,96111.45
2018-11-13T12:45:20.699Z,96113.03
2018-11-13T12:47:50.066Z,96112.63
2018-11-13T12:50:20.265Z,96110.41
2018-11-13T12:52:49.698Z,96113.42
2018-11-13T12:55:21.269Z,96110.55
2018-11-13T12:57:50.661Z,96109.25
2018-11-13T13:00:22.161Z,96110.48
2018-11-13T13:02:51.395Z,96103.70
2018-11-13T13:05:20.910Z,96104.26
2018-11-13T13:07:50.282Z,96097.30
2018-11-13T13:10:20.414Z,96088.79
2018-11-13T13:12:49.785Z,96093.45
2018-11-13T13:15:20.041Z,96098.47
2018-11-13T13:17:49.277Z,96101.98
2018-11-13T13:20:21.012Z,96095.23
2018-11-13T13:22:50.690Z,96101.17
2018-11-13T13:25:20.924Z,96098.95
2018-11-13T13:27:50.308Z,96104.44
2018-11-13T13:30:20.755Z,96094.33
2018-11-13T13:32:50.338Z,96094.29
2018-11-13T13:36:06.260Z,96094.29
2018-11-13T13:38:36.840Z,96096.36
2018-11-13T13:41:06.471Z,96086.20
2018-11-13T13:43:36.074Z,96093.30
2018-11-13T13:46:05.480Z,96090.97
2018-11-13T13:48:34.838Z,96086.56
2018-11-13T13:51:04.162Z,96084.58
2018-11-13T13:53:33.445Z,96084.27
2018-11-13T13:56:02.955Z,96091.31
2018-11-13T13:58:32.258Z,96085.73
2018-11-13T14:01:01.642Z,96088.41
2018-11-13T14:03:30.793Z,96087.17
2018-11-13T14:06:00.280Z,96085.02
2018-11-13T14:08:29.761Z,96079.69
2018-11-13T14:10:59.082Z,96081.36
2018-11-13T14:13:28.412Z,96079.64
2018-11-13T14:15:57.702Z,96073.41
2018-11-13T14:18:26.882Z,96074.91
2018-11-13T14:20:56.712Z,96072.28
2018-11-13T14:23:25.877Z,96070.78
2018-11-13T14:25:55.123Z,96068.50
2018-11-13T14:28:24.450Z,96067.84
2018-11-13T14:30:53.742Z,96062.92
2018-11-13T14:33:23.346Z,96060.72
2018-11-13T14:35:52.828Z,96057.48
2018-11-13T14:38:22.130Z,96061.61
2018-11-13T14:40:51.310Z,96060.63
2018-11-13T14:43:20.510Z,96057.56
2018-11-13T14:45:49.913Z,96056.13
2018-11-13T14:48:19.095Z,96056.97
2018-11-13T14:50:48.348Z,96063.79
2018-11-13T14:53:17.642Z,96059.84
2018-11-13T14:55:47.086Z,96059.76
2018-11-13T14:58:17.504Z,96062.56
2018-11-13T15:00:46.765Z,96055.09
2018-11-13T15:03:17.015Z,96062.05
2018-11-13T15:05:46.422Z,96063.42
2018-11-13T15:08:15.813Z,96064.11
2018-11-13T15:10:52.814Z,96059.39
2018-11-13T15:13:23.298Z,96061.79
2018-11-13T15:15:52.424Z,96062.50
2018-11-13T15:18:21.517Z,96054.75
2018-11-13T15:20:51.811Z,96064.10
2018-11-13T15:23:21.303Z,96060.80
2018-11-13T15:25:50.434Z,96061.20
2018-11-13T15:28:19.758Z,96067.94
2018-11-13T15:30:50.355Z,96065.89
2018-11-13T15:33:21.737Z,96068.78
2018-11-13T15:35:51.403Z,96078.18
2018-11-13T15:38:20.606Z,96070.37
2018-11-13T15:40:49.838Z,96074.80
2018-11-13T15:43:19.158Z,96075.57
2018-11-13T15:45:48.218Z,96077.83
2018-11-13T15:48:17.515Z,96076.42
2018-11-13T15:50:46.847Z,96075.16
2018-11-13T15:53:16.275Z,96076.63
2018-11-13T15:55:45.557Z,96080.50
2018-11-13T15:58:14.886Z,96084.13
2018-11-13T16:00:44.289Z,96085.60
2018-11-13T16:03:19.966Z,96092.39
2018-11-13T16:05:50.423Z,96090.09
2018-11-13T16:08:19.842Z,96091.97
2018-11-13T16:10:49.309Z,96091.50
2018-11-13T16:13:18.515Z,96091.24
2018-11-13T16:15:47.758Z,96096.50
2018-11-13T16:18:19.578Z,96094.69
2018-11-13T16:20:48.748Z,96095.63
2018-11-13T16:23:18.006Z,96097.28
2018-11-13T16:25:47.287Z,96094.58
2018-11-13T16:28:16.553Z,96099.84
2018-11-13T16:30:45.955Z,96104.22
2018-11-13T16:33:15.105Z,96102.77
2018-11-13T16:35:44.530Z,96093.52
2018-11-13T16:38:14.063Z,96089.07
2018-11-13T16:40:43.201Z,96100.91
2018-11-13T16:43:12.362Z,96098.94
2018-11-13T16:45:41.643Z,96104.86
2018-11-13T16:48:11.008Z,96105.72
2018-11-13T16:50:41.534Z,96102.03
2018-11-13T16:53:10.867Z,96104.72
2018-11-13T16:55:47.736Z,96098.97
2018-11-13T16:58:17.263Z,96101.89
2018-11-13T17:00:46.859Z,96102.12
2018-11-13T17:03:16.061Z,96110.34
2018-11-13T17:05:45.273Z,96108.47
2018-11-13T17:08:14.535Z,96112.25
2018-11-13T17:10:44.409Z,96115.59
2018-11-13T17:13:13.757Z,96117.91
2018-11-13T17:15:43.221Z,96115.16
2018-11-13T17:18:13.726Z,96122.59
2018-11-13T17:20:41.678Z,96120.38
2018-11-13T17:23:10.989Z,96117.62
2018-11-13T17:25:40.510Z,96126.05
2018-11-13T17:28:09.887Z,96119.36
2018-11-13T17:30:39.286Z,96123.44
2018-11-13T17:33:09.768Z,96118.80
2018-11-13T17:35:38.983Z,96111.92
2018-11-13T17:38:08.178Z,96104.23
2018-11-13T17:40:38.027Z,96109.66
2018-11-13T17:43:07.932Z,96107.27
2018-11-13T17:45:38.550Z,96114.47
2018-11-13T17:48:08.960Z,96107.08
2018-11-13T17:50:42.729Z,96114.58
2018-11-13T17:53:12.503Z,96108.73
2018-11-13T17:55:42.131Z,96103.08
2018-11-13T17:58:13.386Z,96120.60
2018-11-13T18:00:46.062Z,96119.44
2018-11-13T18:03:16.428Z,96118.33
2018-11-13T18:05:46.663Z,96126.05
2018-11-13T18:08:15.736Z,96120.23
2018-11-13T18:10:46.184Z,96126.17
2018-11-13T18:13:15.453Z,96126.05
2018-11-13T18:15:45.049Z,96122.91
2018-11-13T18:18:14.565Z,96118.17
2018-11-13T18:20:43.945Z,96115.69
2018-11-13T18:23:13.098Z,96106.47
2018-11-13T18:25:42.612Z,96111.75
2018-11-13T18:28:12.421Z,96106.25
2018-11-13T18:30:41.658Z,96103.14
2018-11-13T18:33:11.073Z,96105.22
2018-11-13T18:35:40.913Z,96095.31
2018-11-13T18:38:11.942Z,96096.91
2018-11-13T18:40:41.487Z,96108.85
2018-11-13T18:43:10.953Z,96110.43
2018-11-13T18:45:41.446Z,96105.86
2018-11-13T18:48:11.136Z,96099.63
2018-11-13T18:50:42.883Z,96105.73
2018-11-13T18:53:12.387Z,96108.90
2018-11-13T18:55:41.944Z,96111.50
2018-11-13T18:58:11.560Z,96115.06
2018-11-13T19:00:41.515Z,96113.64
2018-11-13T19:03:11.928Z,96116.94
2018-11-13T19:05:41.579Z,96122.98
2018-11-13T19:08:11.329Z,96116.80
2018-11-13T19:10:42.309Z,96118.36
2018-11-13T19:13:13.258Z,96115.50
2018-11-13T19:15:43.960Z,96118.22
2018-11-13T19:18:13.680Z,96116.97
2018-11-13T19:20:42.979Z,96120.47
2018-11-13T19:23:12.624Z,96121.25
2018-11-13T19:25:42.305Z,96116.63
2018-11-13T19:28:11.948Z,96119.38
2018-11-13T19:30:41.258Z,96123.12
2018-11-13T19:33:10.641Z,96124.13
2018-11-13T19:35:40.347Z,96118.34
2018-11-13T19:38:09.626Z,96123.81
2018-11-13T19:40:38.920Z,96116.45
2018-11-13T19:43:09.568Z,96113.91
2018-11-13T19:45:38.764Z,96108.27
2018-11-13T19:48:08.152Z,96110.99
2018-11-13T19:50:37.957Z,96102.22
2018-11-13T19:53:07.301Z,96103.63
2018-11-13T19:55:37.347Z,96111.77
2018-11-13T19:58:07.324Z,96108.57
2018-11-13T20:00:38.493Z,96113.23
2018-11-13T20:03:09.176Z,96113.63
2018-11-13T20:05:38.357Z,96117.48
2018-11-13T20:08:08.170Z,96118.90
2018-11-13T20:10:38.050Z,96118.45
2018-11-13T20:13:08.175Z,96121.13
2018-11-13T20:15:37.883Z,96112.86
2018-11-13T20:18:07.483Z,96119.91
2018-11-13T20:20:37.021Z,96116.17
2018-11-13T20:23:07.646Z,96116.41
2018-11-13T20:25:37.191Z,96115.82
2018-11-13T20:28:06.471Z,96105.59
2018-11-13T20:30:36.923Z,96105.89
2018-11-13T20:33:06.077Z,96098.09
2018-11-13T20:35:35.431Z,96098.30
2018-11-13T20:38:06.731Z,96093.13
2018-11-13T20:40:37.050Z,96088.70
2018-11-13T20:43:07.941Z,96092.80
2018-11-13T20:45:37.273Z,96088.41
2018-11-13T20:48:07.184Z,96090.80
2018-11-13T20:50:36.422Z,96080.32
2018-11-13T20:53:05.674Z,96077.64
2018-11-13T20:55:34.930Z,96087.18
2018-11-13T20:58:04.670Z,96088.02
2018-11-13T21:00:34.967Z,96095.03
2018-11-13T21:03:04.170Z,96096.98
2018-11-13T21:05:33.400Z,96100.25
2018-11-13T21:08:02.772Z,96111.44
2018-11-13T21:10:39.163Z,96115.71
2018-11-13T21:13:09.506Z,96112.88
2018-11-13T21:15:39.078Z,96110.43
2018-11-13T21:18:08.378Z,96106.47
2018-11-13T21:20:37.776Z,96104.75
2018-11-13T21:23:07.134Z,96095.73
2018-11-13T21:25:36.789Z,96097.02
2018-11-13T21:28:05.936Z,96101.39
2018-11-13T21:30:35.264Z,96100.30
2018-11-13T21:33:04.507Z,96093.34
2018-11-13T21:35:33.710Z,96088.77
2018-11-13T21:38:02.973Z,96082.66
2018-11-13T21:40:32.410Z,96088.98
2018-11-13T21:43:01.530Z,96093.94
2018-11-13T21:45:30.351Z,96089.63
2018-11-13T21:48:00.628Z,96087.00
2018-11-13T21:50:30.458Z,96085.48
2018-11-13T21:53:00.074Z,96080.89
2018-11-13T21:55:29.943Z,96092.92
2018-11-13T21:57:59.105Z,96096.45
2018-11-13T22:00:31.818Z,96085.37
2018-11-13T22:03:04.128Z,96085.23
2018-11-13T22:05:34.098Z,96086.78
2018-11-13T22:08:03.354Z,96080.61
2018-11-13T22:10:32.593Z,96072.78
2018-11-13T22:13:01.617Z,96074.35
2018-11-13T22:15:31.250Z,96072.78
2018-11-13T22:18:01.192Z,96070.42
2018-11-13T22:20:30.438Z,96052.23
2018-11-13T22:23:00.450Z,96044.56
2018-11-13T22:25:29.782Z,96050.42
2018-11-13T22:27:59.475Z,96050.45
2018-11-13T22:30:29.896Z,96042.70
2018-11-13T22:32:59.003Z,96044.60
2018-11-13T22:35:28.315Z,96039.98
2018-11-13T22:37:57.992Z,96058.80
2018-11-13T22:40:28.273Z,96059.59
2018-11-13T22:42:58.030Z,96051.27
2018-11-13T22:45:28.327Z,96049.73
2018-11-13T22:47:57.843Z,96045.45
2018-11-13T22:50:29.243Z,96048.00
2018-11-13T22:52:58.561Z,96049.00
2018-11-13T22:55:27.817Z,96041.09
2018-11-13T22:57:57.789Z,96034.72
2018-11-13T23:00:40.476Z,96037.41
2018-11-13T23:03:11.883Z,96043.63
2018-11-13T23:05:41.198Z,96040.75
2018-11-13T23:08:11.729Z,96043.09
2018-11-13T23:10:41.069Z,96049.30
2018-11-13T23:13:10.363Z,96043.90
2018-11-13T23:15:39.756Z,96039.06
2018-11-13T23:18:09.399Z,96043.14
2018-11-13T23:20:38.771Z,96043.13
2018-11-13T23:23:07.946Z,96048.37
2018-11-13T23:25:37.167Z,96044.09
2018-11-13T23:28:06.832Z,96037.09
2018-11-13T23:30:36.210Z,96042.92
2018-11-13T23:33:06.044Z,96041.58
2018-11-13T23:35:34.979Z,96037.32
2018-11-13T23:38:04.235Z,96038.27
2018-11-13T23:40:33.363Z,96044.30
2018-11-13T23:43:02.582Z,96037.32
2018-11-13T23:45:31.670Z,96034.98
2018-11-13T23:48:01.123Z,96029.55
2018-11-13T23:50:30.194Z,96030.70
2018-11-13T23:52:59.605Z,96029.34
2018-11-13T23:55:28.977Z,96030.29
2018-11-13T23:57:58.209Z,96030.67
